KJAX/JAX METAR and TAF weather

Enter ICAO airport designator
Station Type Date Time Source
KJAX METAR 2020/09/22 19:56 UTC NOAA

KJAX 221956Z 04014KT 10SM FEW045 BKN250 26/14 A3011 RMK AO2 SLP196 T02610139


Station Type Date Time Source
KJAX Decoded METAR 2020/09/22 19:56 UTC NOAA

JACKSONVILLE INTERNATIONAL, FL, United States (KJAX) 30-30N 81-42W 7M
Sep 22, 2020 - 03:56 PM EDT / 2020.09.22 1956 UTC
Wind: from the NE (040 degrees) at 16 MPH (14 KT):0
Visibility: 10 mile(s):0
Sky conditions: mostly cloudy
Temperature: 79.0 F (26.1 C)
Dew Point: 57.0 F (13.9 C)
Relative Humidity: 46%
Pressure (altimeter): 30.11 in. Hg (1019 hPa)
ob: KJAX 221956Z 04014KT 10SM FEW045 BKN250 26/14 A3011 RMK AO2 SLP196 T02610139
cycle: 20

Station Type Date Time Source
KJAX TAF 2020/09/22 18:22 UTC NOAA

TAF KJAX 221720Z 2218/2318 05015KT P6SM SCT040 BKN250
FM222200 05010KT P6SM FEW040 SCT120
FM230200 VRB03KT P6SM BKN250
FM231500 10006KT P6SM FEW030 BKN250

Example: see airport list